Time;durP1;ratioP1;P1;durP2;ratioP2;P2;SDS_P1;SDS_P2;PMS_P1;PMS_P2;Temp;Humidity;BMP_temperature;BMP_pressure;BME280_temperature;BME280_humidity;BME280_pressure;Samples;Min_cycle;Max_cycle;Signal;HPM_P1;HPM_P2
2023/10/25 00:01:54;;;;;;;7.90;2.87;;;;;16.40;95363.00;;;;5046118;28;20197;-66
2023/10/25 00:04:44;;;;;;;6.97;2.70;;;;;16.10;95355.00;;;;5054374;28;20211;-66
2023/10/25 00:07:33;;;;;;;7.67;2.60;;;;;15.90;95370.00;;;;5043860;28;20270;-67
2023/10/25 00:10:22;;;;;;;7.63;2.67;;;;;16.10;95360.00;;;;5041680;28;20228;-67
2023/10/25 00:13:11;;;;;;;3.43;1.33;;;;;16.10;95374.00;;;;5046808;28;20204;-67
2023/10/25 00:16:00;;;;;;;10.97;3.90;;;;;16.30;95382.00;;;;5048543;28;20200;-67
2023/10/25 00:18:49;;;;;;;7.33;2.53;;;;;16.00;95392.00;;;;5048533;28;20221;-67
2023/10/25 00:21:40;;;;;;;5.20;1.87;;;;;16.20;95392.00;;;;5044698;28;20207;-67
2023/10/25 00:24:29;;;;;;;7.90;2.70;;;;;16.30;95394.00;;;;5045583;28;20700;-67
2023/10/25 00:27:18;;;;;;;7.77;2.70;;;;;16.20;95391.00;;;;5048517;28;20232;-67
2023/10/25 00:30:08;;;;;;;12.17;4.13;;;;;16.30;95393.00;;;;5048325;28;20242;-67
2023/10/25 00:32:57;;;;;;;13.17;4.40;;;;;16.30;95401.00;;;;5044006;28;20257;-67
2023/10/25 00:35:46;;;;;;;7.30;2.50;;;;;16.20;95405.00;;;;5045840;28;20200;-67
2023/10/25 00:38:36;;;;;;;7.17;2.57;;;;;16.10;95400.00;;;;5043635;28;20705;-67
2023/10/25 00:41:25;;;;;;;6.67;2.43;;;;;16.00;95403.00;;;;5041924;28;20296;-67
2023/10/25 00:44:14;;;;;;;7.10;2.53;;;;;16.00;95405.00;;;;5045932;28;20753;-67
2023/10/25 00:47:04;;;;;;;12.50;4.20;;;;;16.10;95410.00;;;;5048363;28;20327;-67
2023/10/25 00:49:53;;;;;;;12.23;4.13;;;;;16.00;95411.00;;;;5051680;28;20208;-68
2023/10/25 00:52:42;;;;;;;7.10;2.50;;;;;16.00;95415.00;;;;5048668;28;20678;-67
2023/10/25 00:55:32;;;;;;;7.50;2.70;;;;;16.10;95418.00;;;;5048086;28;20208;-67
2023/10/25 00:58:22;;;;;;;12.93;4.37;;;;;16.10;95418.00;;;;5044221;28;20232;-67
2023/10/25 01:01:11;;;;;;;13.93;4.73;;;;;16.10;95423.00;;;;5047534;28;20204;-67
2023/10/25 01:04:00;;;;;;;12.43;4.20;;;;;16.10;95423.00;;;;5046103;28;20201;-67
2023/10/25 01:06:49;;;;;;;8.57;2.87;;;;;16.10;95420.00;;;;5047430;28;20206;-67
2023/10/25 01:09:38;;;;;;;4.43;1.80;;;;;16.00;95432.00;;;;5043884;28;20207;-67
2023/10/25 01:12:28;;;;;;;5.87;2.00;;;;;16.00;95434.00;;;;5047863;28;20232;-67
2023/10/25 01:15:21;;;;;;;7.37;2.50;;;;;16.00;95430.00;;;;5052250;28;20579;-67
2023/10/25 01:18:10;;;;;;;13.10;4.43;;;;;16.00;95428.00;;;;5050507;28;20615;-67
2023/10/25 01:20:59;;;;;;;12.90;4.43;;;;;16.00;95430.00;;;;5051336;28;20197;-67
2023/10/25 01:23:53;;;;;;;6.97;2.37;;;;;15.90;95431.00;;;;5052370;28;20209;-67
2023/10/25 01:26:42;;;;;;;6.13;2.20;;;;;15.80;95428.00;;;;5051897;28;20204;-68
2023/10/25 01:29:31;;;;;;;7.67;2.77;;;;;15.90;95430.00;;;;5052055;28;20200;-69
2023/10/25 01:32:20;;;;;;;6.27;2.13;;;;;15.80;95433.00;;;;5048740;28;20224;-68
2023/10/25 01:35:10;;;;;;;7.27;2.53;;;;;15.60;95422.00;;;;5050830;28;20204;-68
2023/10/25 01:37:59;;;;;;;15.53;5.03;;;;;15.70;95423.00;;;;5049599;28;20216;-69
2023/10/25 01:40:49;;;;;;;8.63;2.97;;;;;15.70;95427.00;;;;5051466;28;20208;-69
2023/10/25 01:43:38;;;;;;;6.27;2.23;;;;;15.70;95442.00;;;;5050889;28;20680;-69
2023/10/25 01:46:27;;;;;;;13.17;4.33;;;;;15.50;95450.00;;;;5052978;28;20212;-68
2023/10/25 01:49:16;;;;;;;6.70;2.40;;;;;15.50;95450.00;;;;5050098;28;20258;-68
2023/10/25 01:52:06;;;;;;;10.93;3.80;;;;;15.40;95446.00;;;;5050108;28;20724;-68
2023/10/25 01:54:55;;;;;;;9.37;3.20;;;;;15.60;95440.00;;;;5050184;28;20697;-69
2023/10/25 01:57:46;;;;;;;7.47;2.50;;;;;15.50;95443.00;;;;5049182;28;20232;-69
2023/10/25 02:00:35;;;;;;;8.07;2.77;;;;;15.50;95438.00;;;;5047747;28;20233;-69
2023/10/25 02:03:24;;;;;;;7.43;2.57;;;;;15.50;95442.00;;;;5051098;28;20213;-68
2023/10/25 02:06:14;;;;;;;9.47;3.10;;;;;15.60;95441.00;;;;5050844;28;20205;-68
2023/10/25 02:09:03;;;;;;;12.30;4.07;;;;;15.50;95440.00;;;;5048413;28;20217;-69
2023/10/25 02:11:52;;;;;;;8.33;2.87;;;;;15.30;95450.00;;;;5058104;28;20220;-69
2023/10/25 02:14:42;;;;;;;8.30;2.87;;;;;15.40;95446.00;;;;5054435;28;20205;-69
2023/10/25 02:17:31;;;;;;;6.20;2.23;;;;;15.30;95434.00;;;;5046001;28;20645;-69
2023/10/25 02:20:20;;;;;;;3.37;1.37;;;;;15.40;95446.00;;;;5050718;28;20204;-68
2023/10/25 02:23:09;;;;;;;9.13;3.27;;;;;15.30;95434.00;;;;5049124;28;20207;-68
2023/10/25 02:25:58;;;;;;;16.43;5.50;;;;;15.20;95430.00;;;;5049807;28;20215;-69
2023/10/25 02:28:47;;;;;;;5.07;1.80;;;;;15.30;95432.00;;;;5050201;28;20224;-68
2023/10/25 02:31:38;;;;;;;5.23;1.87;;;;;15.40;95433.00;;;;5049820;28;20228;-69
2023/10/25 02:34:28;;;;;;;5.97;2.17;;;;;15.40;95429.00;;;;5049016;28;20200;-69
2023/10/25 02:37:17;;;;;;;7.20;2.50;;;;;15.40;95434.00;;;;5050350;28;20216;-69
2023/10/25 02:40:08;;;;;;;10.47;3.67;;;;;15.40;95435.00;;;;5049845;28;20215;-69
2023/10/25 02:42:57;;;;;;;9.70;3.30;;;;;15.40;95434.00;;;;5048261;28;20200;-69
2023/10/25 02:45:46;;;;;;;8.10;2.77;;;;;15.00;95434.00;;;;5050636;28;20200;-68
2023/10/25 02:48:37;;;;;;;7.67;2.57;;;;;14.70;95443.00;;;;5049645;28;20254;-69
2023/10/25 02:51:26;;;;;;;6.10;2.17;;;;;15.10;95462.00;;;;5052018;28;20696;-69
2023/10/25 02:54:15;;;;;;;5.93;2.20;;;;;14.70;95469.00;;;;5050523;28;20843;-69
2023/10/25 02:57:05;;;;;;;14.23;4.73;;;;;14.90;95477.00;;;;5048876;28;20251;-69
2023/10/25 02:59:54;;;;;;;5.23;1.90;;;;;15.00;95479.00;;;;5052887;28;20211;-69
2023/10/25 03:02:43;;;;;;;5.60;1.93;;;;;14.60;95494.00;;;;5052792;28;20207;-69
2023/10/25 03:05:34;;;;;;;5.07;1.87;;;;;14.80;95501.00;;;;5046423;28;20211;-69
2023/10/25 03:08:23;;;;;;;10.57;3.57;;;;;14.80;95510.00;;;;5054707;28;20615;-69
2023/10/25 03:11:12;;;;;;;13.33;4.67;;;;;15.10;95513.00;;;;5052235;28;20209;-68
2023/10/25 03:14:01;;;;;;;9.90;3.30;;;;;15.10;95520.00;;;;5049822;28;20208;-69
2023/10/25 03:16:50;;;;;;;8.67;2.93;;;;;15.00;95535.00;;;;5047249;28;20204;-69
2023/10/25 03:19:39;;;;;;;6.73;2.53;;;;;14.90;95527.00;;;;5050201;28;20207;-69
2023/10/25 03:22:30;;;;;;;8.37;2.87;;;;;15.00;95544.00;;;;5044848;28;20204;-69
2023/10/25 03:25:19;;;;;;;6.00;2.17;;;;;15.10;95548.00;;;;5040941;28;20198;-68
2023/10/25 03:28:08;;;;;;;10.97;3.87;;;;;15.00;95548.00;;;;5048074;28;20224;-69
2023/10/25 03:30:57;;;;;;;12.60;4.57;;;;;15.00;95565.00;;;;5054417;28;20200;-69
2023/10/25 03:33:47;;;;;;;5.23;2.03;;;;;15.00;95561.00;;;;5049393;28;20235;-69
2023/10/25 03:36:36;;;;;;;6.97;2.47;;;;;15.10;95561.00;;;;5045009;28;20705;-68
2023/10/25 03:39:26;;;;;;;6.97;2.50;;;;;15.10;95565.00;;;;5042456;28;20218;-69
2023/10/25 03:42:15;;;;;;;5.77;2.17;;;;;15.00;95572.00;;;;5048177;28;20203;-69
2023/10/25 03:45:06;;;;;;;12.27;4.23;;;;;15.10;95585.00;;;;5049513;28;20211;-69
2023/10/25 03:47:55;;;;;;;6.90;2.57;;;;;15.10;95586.00;;;;5047554;28;20224;-69
2023/10/25 03:50:44;;;;;;;5.97;2.20;;;;;14.60;95594.00;;;;5049158;28;20208;-69
2023/10/25 03:53:34;;;;;;;6.67;2.40;;;;;14.60;95593.00;;;;5045118;28;20231;-68
2023/10/25 03:56:25;;;;;;;10.30;3.60;;;;;15.00;95586.00;;;;5049002;28;20238;-69
2023/10/25 03:59:15;;;;;;;9.67;3.03;;;;;15.00;95596.00;;;;5104580;22;22295;-71
2023/10/25 04:02:04;;;;;;;11.03;3.43;;;;;15.00;95592.00;;;;5083068;28;20652;-70
2023/10/25 04:04:53;;;;;;;7.10;2.37;;;;;14.90;95607.00;;;;5081912;28;20214;-69
2023/10/25 04:07:42;;;;;;;7.17;2.37;;;;;14.60;95605.00;;;;5084217;28;20223;-71
2023/10/25 04:10:31;;;;;;;9.83;3.10;;;;;14.90;95599.00;;;;5089190;28;20199;-70
2023/10/25 04:13:23;;;;;;;7.77;2.50;;;;;14.80;95604.00;;;;5082793;28;20231;-70
2023/10/25 04:16:12;;;;;;;17.77;5.63;;;;;14.70;95601.00;;;;5086233;28;20695;-70
2023/10/25 04:19:01;;;;;;;16.00;5.07;;;;;14.70;95606.00;;;;5090786;28;20359;-70
2023/10/25 04:21:50;;;;;;;9.00;2.83;;;;;14.90;95599.00;;;;5087028;28;20203;-70
2023/10/25 04:24:39;;;;;;;8.17;2.60;;;;;14.80;95602.00;;;;5090616;28;20211;-70
2023/10/25 04:27:28;;;;;;;8.90;2.90;;;;;15.00;95603.00;;;;5078415;28;20218;-70
2023/10/25 04:30:19;;;;;;;7.90;2.63;;;;;15.00;95608.00;;;;5104699;28;20609;-70
2023/10/25 04:33:08;;;;;;;14.50;4.57;;;;;15.10;95609.00;;;;5088925;28;20695;-71
2023/10/25 04:35:57;;;;;;;11.53;3.53;;;;;15.00;95619.00;;;;5093353;28;20590;-70
2023/10/25 04:38:49;;;;;;;9.43;2.97;;;;;14.90;95618.00;;;;5093218;28;20230;-69
2023/10/25 04:41:39;;;;;;;7.80;2.47;;;;;14.90;95621.00;;;;5081587;28;20874;-70
2023/10/25 04:44:28;;;;;;;10.97;3.43;;;;;14.80;95626.00;;;;5088915;28;20194;-70
2023/10/25 04:47:19;;;;;;;5.03;1.67;;;;;14.70;95626.00;;;;5081364;28;20582;-70
2023/10/25 04:50:08;;;;;;;10.57;3.40;;;;;14.80;95627.00;;;;5091276;28;20199;-70
2023/10/25 04:52:57;;;;;;;10.40;3.30;;;;;14.90;95630.00;;;;5096492;28;20219;-70
2023/10/25 04:55:46;;;;;;;8.43;2.73;;;;;14.80;95634.00;;;;5102897;28;20203;-70
2023/10/25 04:58:36;;;;;;;3.27;1.20;;;;;14.70;95643.00;;;;5093718;28;20732;-70
2023/10/25 05:01:25;;;;;;;8.00;2.63;;;;;14.90;95644.00;;;;5091375;28;20195;-70
2023/10/25 05:04:16;;;;;;;11.37;3.67;;;;;14.90;95639.00;;;;5099215;28;20202;-70
2023/10/25 05:07:05;;;;;;;18.10;5.40;;;;;15.00;95638.00;;;;5098810;28;20277;-70
2023/10/25 05:09:55;;;;;;;11.43;3.60;;;;;15.10;95633.00;;;;5089913;28;20214;-70
2023/10/25 05:12:45;;;;;;;8.07;2.60;;;;;15.10;95623.00;;;;5088605;28;20579;-69
2023/10/25 05:15:36;;;;;;;7.90;2.63;;;;;15.10;95627.00;;;;5089785;28;20221;-70
2023/10/25 05:18:26;;;;;;;14.20;4.47;;;;;15.00;95628.00;;;;5089378;28;20295;-70
2023/10/25 05:21:18;;;;;;;15.37;4.73;;;;;14.90;95629.00;;;;5088038;28;20211;-69
2023/10/25 05:24:09;;;;;;;12.97;3.97;;;;;14.60;95634.00;;;;5091282;28;20683;-71
2023/10/25 05:26:59;;;;;;;17.93;5.33;;;;;14.50;95630.00;;;;5094785;28;20199;-70
2023/10/25 05:29:48;;;;;;;14.77;4.43;;;;;14.70;95615.00;;;;5095780;28;20202;-70
2023/10/25 05:32:39;;;;;;;9.87;3.10;;;;;14.80;95595.00;;;;5090625;28;20582;-70
2023/10/25 05:35:29;;;;;;;4.40;1.53;;;;;14.60;95605.00;;;;5095708;28;20593;-68
2023/10/25 05:38:20;;;;;;;21.97;6.60;;;;;14.30;95612.00;;;;5095176;28;20218;-70
2023/10/25 05:41:09;;;;;;;18.33;5.53;;;;;13.90;95625.00;;;;5087955;28;20199;-70
2023/10/25 05:44:06;;;;;;;14.50;4.43;;;;;14.00;95625.00;;;;5091632;28;20199;-69
2023/10/25 05:46:55;;;;;;;10.07;3.13;;;;;14.20;95633.00;;;;5080902;28;20199;-68
2023/10/25 05:49:45;;;;;;;10.20;3.10;;;;;14.00;95653.00;;;;5100763;28;20263;-69
2023/10/25 05:52:35;;;;;;;9.43;2.93;;;;;13.90;95658.00;;;;5075104;28;20223;-70
2023/10/25 05:55:26;;;;;;;22.77;6.73;;;;;14.00;95673.00;;;;5090361;28;20206;-70
2023/10/25 05:58:16;;;;;;;22.03;6.37;;;;;14.20;95676.00;;;;5076277;28;20234;-70
2023/10/25 06:01:10;;;;;;;14.80;4.27;;;;;14.40;95666.00;;;;5081357;28;20218;-70
2023/10/25 06:04:00;;;;;;;10.90;3.30;;;;;14.30;95669.00;;;;5092229;28;20670;-69
2023/10/25 06:06:50;;;;;;;6.63;2.10;;;;;14.40;95680.00;;;;5097872;28;20671;-70
2023/10/25 06:09:40;;;;;;;15.90;4.77;;;;;14.50;95677.00;;;;5092970;28;20217;-70
2023/10/25 06:12:31;;;;;;;7.87;2.53;;;;;14.50;95686.00;;;;5095405;28;20226;-70
2023/10/25 06:15:20;;;;;;;5.23;1.70;;;;;14.40;95689.00;;;;5083652;28;20719;-70
2023/10/25 06:18:10;;;;;;;11.23;3.63;;;;;14.30;95696.00;;;;5085247;28;20222;-68
2023/10/25 06:20:59;;;;;;;12.13;3.87;;;;;14.60;95722.00;;;;5090746;28;20593;-70
2023/10/25 06:23:48;;;;;;;9.23;2.97;;;;;14.90;95734.00;;;;5096028;28;20194;-69
2023/10/25 06:26:37;;;;;;;8.90;2.80;;;;;15.00;95730.00;;;;5096634;27;20199;-71
2023/10/25 06:29:27;;;;;;;8.93;2.73;;;;;15.10;95730.00;;;;5095010;28;20223;-71
2023/10/25 06:32:16;;;;;;;5.47;1.83;;;;;15.20;95725.00;;;;5092880;28;21558;-70
2023/10/25 06:35:06;;;;;;;11.47;3.50;;;;;15.30;95731.00;;;;5104603;28;20233;-69
2023/10/25 06:37:55;;;;;;;5.97;1.93;;;;;15.40;95727.00;;;;5082509;28;20216;-71
2023/10/25 06:40:45;;;;;;;10.00;3.03;;;;;15.40;95727.00;;;;5097890;28;20699;-70
2023/10/25 06:43:34;;;;;;;6.47;2.13;;;;;15.40;95732.00;;;;5097314;28;20203;-69
2023/10/25 06:46:26;;;;;;;14.47;4.17;;;;;15.30;95739.00;;;;5076716;28;20226;-69
2023/10/25 06:49:15;;;;;;;13.60;4.30;;;;;15.30;95746.00;;;;5098997;28;20250;-70
2023/10/25 06:52:05;;;;;;;12.07;3.60;;;;;15.20;95749.00;;;;5078343;28;20203;-70
2023/10/25 06:54:54;;;;;;;8.90;2.77;;;;;15.20;95764.00;;;;5084754;28;20643;-69
2023/10/25 06:57:44;;;;;;;9.47;2.93;;;;;15.00;95761.00;;;;5093217;28;20635;-69
2023/10/25 07:00:34;;;;;;;10.17;3.07;;;;;14.90;95761.00;;;;5098806;28;20194;-70
2023/10/25 07:03:28;;;;;;;6.57;2.17;;;;;15.00;95756.00;;;;5096991;28;20206;-70
2023/10/25 07:06:17;;;;;;;10.23;3.07;;;;;15.50;95760.00;;;;5097583;28;20372;-70
2023/10/25 07:09:07;;;;;;;8.53;2.70;;;;;15.60;95757.00;;;;5101781;28;20611;-70
2023/10/25 07:11:56;;;;;;;8.50;2.70;;;;;15.70;95762.00;;;;5093228;28;20218;-70
2023/10/25 07:14:45;;;;;;;8.43;2.73;;;;;15.50;95766.00;;;;5091961;28;20223;-71
2023/10/25 07:17:35;;;;;;;8.77;2.73;;;;;15.60;95766.00;;;;5086900;28;20233;-70
2023/10/25 07:20:25;;;;;;;6.27;1.93;;;;;15.60;95768.00;;;;5094713;28;20207;-69
2023/10/25 07:23:14;;;;;;;14.73;4.40;;;;;15.60;95753.00;;;;5085752;28;20207;-69
2023/10/25 07:26:03;;;;;;;19.23;5.60;;;;;15.60;95755.00;;;;5089541;28;20207;-70
2023/10/25 07:28:52;;;;;;;9.43;2.97;;;;;15.80;95753.00;;;;5095976;28;20233;-69
2023/10/25 07:31:41;;;;;;;8.17;2.47;;;;;15.80;95760.00;;;;5090597;28;20202;-70
2023/10/25 07:34:30;;;;;;;6.57;2.10;;;;;15.70;95756.00;;;;5099195;28;20226;-69
2023/10/25 07:37:20;;;;;;;11.43;3.40;;;;;15.90;95760.00;;;;5085730;28;20213;-69
2023/10/25 07:40:11;;;;;;;12.60;4.00;;;;;15.70;95766.00;;;;5101211;28;20207;-70
2023/10/25 07:43:00;;;;;;;11.00;3.43;;;;;16.10;95762.00;;;;5093294;28;20210;-71
2023/10/25 07:45:49;;;;;;;11.70;3.67;;;;;16.40;95764.00;;;;5086779;28;20203;-70
2023/10/25 07:48:38;;;;;;;9.37;2.90;;;;;16.60;95752.00;;;;5096642;28;20600;-71
2023/10/25 07:51:27;;;;;;;8.97;2.80;;;;;16.70;95756.00;;;;5082716;28;20200;-71
2023/10/25 07:54:17;;;;;;;14.67;4.47;;;;;16.80;95752.00;;;;5092799;28;20230;-71
2023/10/25 07:57:06;;;;;;;10.37;3.30;;;;;17.00;95767.00;;;;5077491;28;20278;-70
2023/10/25 07:59:58;;;;;;;9.60;2.97;;;;;16.80;95763.00;;;;5088854;28;20206;-68
2023/10/25 08:02:47;;;;;;;9.83;3.13;;;;;17.00;95755.00;;;;5095210;28;20244;-69
2023/10/25 08:05:36;;;;;;;9.93;3.00;;;;;17.00;95764.00;;;;5095754;28;20221;-71
2023/10/25 08:08:25;;;;;;;16.57;5.00;;;;;17.00;95772.00;;;;5095943;28;20226;-70
2023/10/25 08:11:15;;;;;;;18.37;5.57;;;;;16.80;95771.00;;;;5092529;28;20789;-70
2023/10/25 08:14:04;;;;;;;14.90;4.43;;;;;16.40;95774.00;;;;5099108;28;20204;-71
2023/10/25 08:16:53;;;;;;;11.17;3.47;;;;;16.40;95770.00;;;;5091371;28;20211;-71
2023/10/25 08:19:42;;;;;;;8.67;2.63;;;;;16.60;95772.00;;;;5088649;28;20210;-70
2023/10/25 08:22:33;;;;;;;9.30;2.87;;;;;16.80;95771.00;;;;5084735;28;20209;-70
2023/10/25 08:25:22;;;;;;;10.10;3.07;;;;;17.10;95773.00;;;;5079008;28;20582;-71
2023/10/25 08:28:13;;;;;;;21.93;6.37;;;;;17.20;95775.00;;;;5079873;28;20226;-70
2023/10/25 08:31:11;;;;;;;15.23;4.63;;;;;17.00;95779.00;;;;5095509;28;20278;-71
2023/10/25 08:34:00;;;;;;;10.80;3.43;;;;;16.90;95771.00;;;;5089740;28;20255;-71
2023/10/25 08:36:52;;;;;;;10.90;3.47;;;;;17.10;95784.00;;;;5095374;28;20215;-70
2023/10/25 08:39:41;;;;;;;8.00;2.63;;;;;17.00;95782.00;;;;5095134;28;20252;-70
2023/10/25 08:42:30;;;;;;;7.33;2.37;;;;;17.10;95789.00;;;;5084871;28;20216;-70
2023/10/25 08:45:21;;;;;;;8.00;2.73;;;;;16.90;95784.00;;;;5088349;28;20221;-71
2023/10/25 08:48:10;;;;;;;20.07;6.00;;;;;17.10;95785.00;;;;5085017;28;20222;-70
2023/10/25 08:51:00;;;;;;;13.80;4.20;;;;;17.20;95793.00;;;;5082487;28;20218;-70
2023/10/25 08:53:52;;;;;;;9.60;3.07;;;;;17.30;95779.00;;;;5091979;28;20204;-69
2023/10/25 08:56:41;;;;;;;11.63;3.57;;;;;17.40;95779.00;;;;5094630;28;20693;-71
2023/10/25 08:59:31;;;;;;;7.43;2.43;;;;;17.40;95777.00;;;;5082406;28;20226;-71
2023/10/25 09:02:21;;;;;;;9.70;3.20;;;;;17.30;95782.00;;;;5091468;28;20209;-69
2023/10/25 09:05:10;;;;;;;10.97;3.40;;;;;17.40;95779.00;;;;5091334;28;20210;-71
2023/10/25 09:08:15;;;;;;;6.47;2.13;;;;;17.40;95780.00;;;;5090073;28;20230;-71
2023/10/25 09:11:05;;;;;;;21.53;6.43;;;;;17.20;95783.00;;;;5096378;28;20195;-69
2023/10/25 09:13:57;;;;;;;10.50;3.23;;;;;17.00;95788.00;;;;5098030;28;20210;-70
2023/10/25 09:16:47;;;;;;;10.90;3.37;;;;;17.00;95792.00;;;;5093261;28;20294;-70
2023/10/25 09:19:39;;;;;;;9.77;3.03;;;;;17.30;95790.00;;;;5081967;28;20223;-70
2023/10/25 09:22:30;;;;;;;9.67;2.90;;;;;17.50;95782.00;;;;5079602;28;20217;-69
2023/10/25 09:25:30;;;;;;;6.00;2.07;;;;;17.80;95777.00;;;;5098220;28;20203;-70
2023/10/25 09:28:27;;;;;;;16.97;5.03;;;;;18.00;95772.00;;;;5090327;28;20223;-71
2023/10/25 09:31:24;;;;;;;16.13;4.90;;;;;18.20;95768.00;;;;5085381;28;20696;-69
2023/10/25 09:34:13;;;;;;;15.37;4.63;;;;;18.20;95770.00;;;;5080180;28;20206;-70
2023/10/25 09:37:07;;;;;;;18.60;5.60;;;;;18.30;95775.00;;;;5098157;28;20207;-70
2023/10/25 09:39:56;;;;;;;13.20;4.13;;;;;18.10;95766.00;;;;5103742;28;20556;-69
2023/10/25 09:42:49;;;;;;;10.13;3.33;;;;;18.60;95767.00;;;;5083896;28;20211;-70
2023/10/25 09:45:38;;;;;;;9.43;3.17;;;;;18.60;95761.00;;;;5093066;28;20200;-71
2023/10/25 09:48:28;;;;;;;17.40;5.27;;;;;18.30;95766.00;;;;5089154;28;20237;-70
2023/10/25 09:51:22;;;;;;;17.50;5.43;;;;;18.50;95746.00;;;;5083873;28;20199;-70
2023/10/25 09:54:13;;;;;;;17.73;5.53;;;;;19.00;95747.00;;;;5084825;28;20207;-70
2023/10/25 09:57:04;;;;;;;19.00;5.80;;;;;18.90;95755.00;;;;5081447;28;20237;-70
2023/10/25 09:59:55;;;;;;;25.43;7.57;;;;;18.70;95748.00;;;;5090442;28;20209;-73
2023/10/25 10:02:50;;;;;;;9.40;3.23;;;;;18.80;95750.00;;;;5086930;28;20229;-72
2023/10/25 10:05:45;;;;;;;7.40;2.40;;;;;19.10;95744.00;;;;5091527;28;20207;-72
2023/10/25 10:08:43;;;;;;;12.43;3.93;;;;;19.20;95738.00;;;;5093302;28;20259;-72
2023/10/25 10:11:39;;;;;;;10.40;3.60;;;;;19.50;95736.00;;;;5096331;28;20690;-72
2023/10/25 10:14:29;;;;;;;11.53;3.83;;;;;19.70;95738.00;;;;5087178;28;20194;-72
2023/10/25 10:17:18;;;;;;;15.30;4.97;;;;;19.90;95727.00;;;;5097980;28;20714;-72
2023/10/25 10:20:08;;;;;;;14.80;4.80;;;;;20.00;95728.00;;;;5089846;28;20673;-73
2023/10/25 10:23:05;;;;;;;9.43;3.37;;;;;20.20;95706.00;;;;5092576;28;20230;-72
2023/10/25 10:25:56;;;;;;;13.70;5.50;;;;;20.40;95707.00;;;;5095136;28;20197;-72
2023/10/25 10:28:47;;;;;;;13.93;5.03;;;;;20.40;95699.00;;;;5086866;28;20272;-73
2023/10/25 10:31:56;;;;;;;326.63;312.48;;;;;20.40;95704.00;;;;5083146;28;20399;-72
2023/10/25 10:34:47;;;;;;;33.70;31.30;;;;;20.60;95684.00;;;;5087526;28;20221;-73
2023/10/25 10:37:55;;;;;;;17.33;13.20;;;;;20.80;95693.00;;;;5080799;28;20230;-73
2023/10/25 10:40:49;;;;;;;10.90;9.13;;;;;20.70;95699.00;;;;5087760;28;20203;-72
2023/10/25 10:43:38;;;;;;;12.47;10.90;;;;;20.30;95691.00;;;;5086215;28;20218;-73
2023/10/25 10:46:31;;;;;;;16.77;8.97;;;;;20.20;95684.00;;;;5093688;28;20586;-72
2023/10/25 10:49:21;;;;;;;11.87;5.97;;;;;20.20;95685.00;;;;5097776;28;20730;-73
2023/10/25 10:52:10;;;;;;;32.13;11.43;;;;;20.20;95679.00;;;;5095051;28;20203;-73
2023/10/25 10:55:00;;;;;;;19.00;7.70;;;;;20.30;95669.00;;;;5087994;28;20571;-72
2023/10/25 10:57:49;;;;;;;13.00;6.60;;;;;20.40;95665.00;;;;5090467;28;20707;-72
2023/10/25 11:00:44;;;;;;;10.40;5.20;;;;;20.20;95667.00;;;;5085854;28;20196;-73
2023/10/25 11:03:37;;;;;;;19.00;9.60;;;;;20.20;95661.00;;;;5079451;28;20212;-73
2023/10/25 11:06:26;;;;;;;18.70;7.55;;;;;20.30;95646.00;;;;5087260;28;20403;-72
2023/10/25 11:09:15;;;;;;;15.13;8.43;;;;;20.50;95639.00;;;;5094673;28;20426;-73
2023/10/25 11:12:06;;;;;;;17.73;10.50;;;;;20.60;95634.00;;;;5093200;28;20202;-73
2023/10/25 11:14:55;;;;;;;11.30;5.93;;;;;20.80;95639.00;;;;5092954;28;20202;-73
2023/10/25 11:17:44;;;;;;;12.63;7.40;;;;;20.70;95636.00;;;;5084967;28;20719;-73
2023/10/25 11:20:34;;;;;;;13.10;9.47;;;;;20.50;95642.00;;;;5088602;28;20203;-73
2023/10/25 11:23:23;;;;;;;7.73;5.30;;;;;20.50;95637.00;;;;5090478;28;20203;-72
2023/10/25 11:26:12;;;;;;;17.93;7.37;;;;;20.20;95636.00;;;;5087643;28;20195;-73
2023/10/25 11:29:01;;;;;;;13.73;7.77;;;;;20.00;95634.00;;;;5087311;28;20223;-72
2023/10/25 11:31:55;;;;;;;15.43;7.60;;;;;19.80;95632.00;;;;5084033;28;20225;-73
2023/10/25 11:34:46;;;;;;;11.77;7.53;;;;;19.70;95627.00;;;;5087436;28;20203;-72
2023/10/25 11:37:46;;;;;;;8.93;5.93;;;;;19.70;95613.00;;;;5078435;28;20728;-72
2023/10/25 11:40:39;;;;;;;13.50;10.27;;;;;19.80;95619.00;;;;5083799;28;20218;-73
2023/10/25 11:43:30;;;;;;;371.77;353.90;;;;;19.80;95605.00;;;;5082756;28;20782;-72
2023/10/25 11:46:20;;;;;;;64.40;59.77;;;;;21.00;95579.00;;;;5087029;28;20191;-72
2023/10/25 11:49:09;;;;;;;58.07;53.80;;;;;21.50;95609.00;;;;5086552;28;20234;-73
2023/10/25 11:51:58;;;;;;;60.67;57.40;;;;;21.50;95610.00;;;;5089052;28;20196;-72
2023/10/25 11:54:49;;;;;;;91.37;87.10;;;;;21.60;95602.00;;;;5088020;28;20199;-73
2023/10/25 11:57:39;;;;;;;95.37;91.03;;;;;21.50;95602.00;;;;5079615;28;20226;-73
2023/10/25 12:00:28;;;;;;;99.07;94.33;;;;;21.60;95607.00;;;;5092892;28;20229;-72
2023/10/25 12:03:17;;;;;;;224.57;210.87;;;;;21.60;95604.00;;;;5078852;28;20621;-73
2023/10/25 12:06:06;;;;;;;184.33;173.30;;;;;21.40;95590.00;;;;5092687;28;20219;-73
2023/10/25 12:08:55;;;;;;;104.07;98.93;;;;;21.30;95586.00;;;;5088706;28;20219;-73
2023/10/25 12:11:45;;;;;;;77.97;74.27;;;;;21.90;95581.00;;;;5089848;28;20206;-72
2023/10/25 12:14:34;;;;;;;74.27;70.47;;;;;21.80;95551.00;;;;5082568;28;20199;-74
2023/10/25 12:17:24;;;;;;;55.20;52.23;;;;;22.70;95566.00;;;;5083478;28;20222;-73
2023/10/25 12:20:13;;;;;;;72.10;67.67;;;;;23.40;95545.00;;;;5084955;28;20203;-73
2023/10/25 12:23:11;;;;;;;114.20;107.87;;;;;24.30;95513.00;;;;5091730;28;20214;-75
2023/10/25 12:26:00;;;;;;;173.37;164.70;;;;;26.00;95555.00;;;;5082462;28;20204;-74
2023/10/25 12:28:50;;;;;;;276.07;263.37;;;;;24.50;95559.00;;;;5080971;28;20214;-75
2023/10/25 12:31:39;;;;;;;269.53;256.90;;;;;24.40;95567.00;;;;5088159;28;20200;-73
2023/10/25 12:34:28;;;;;;;228.97;219.27;;;;;24.00;95561.00;;;;5077698;28;20210;-73
2023/10/25 12:37:17;;;;;;;201.83;192.47;;;;;23.40;95562.00;;;;5090625;28;20229;-74
2023/10/25 12:40:08;;;;;;;179.07;170.53;;;;;23.20;95557.00;;;;5081161;28;20215;-74
2023/10/25 12:42:58;;;;;;;151.97;145.27;;;;;23.00;95521.00;;;;5084489;28;20202;-74
2023/10/25 12:45:49;;;;;;;188.93;181.30;;;;;25.20;95508.00;;;;5086647;28;20218;-74
2023/10/25 12:48:38;;;;;;;232.70;223.10;;;;;25.60;95545.00;;;;5083634;28;20224;-74
2023/10/25 12:51:27;;;;;;;261.90;250.87;;;;;25.10;95559.00;;;;5091220;28;20219;-73
2023/10/25 12:54:16;;;;;;;222.77;212.67;;;;;24.00;95559.00;;;;5097187;28;20209;-74
2023/10/25 12:57:05;;;;;;;207.03;197.70;;;;;24.90;95537.00;;;;5096010;28;20222;-73
2023/10/25 12:59:54;;;;;;;242.43;232.20;;;;;25.70;95571.00;;;;5075708;28;20214;-74
2023/10/25 13:02:45;;;;;;;236.30;224.43;;;;;23.70;95566.00;;;;5078916;28;20209;-75
2023/10/25 13:05:34;;;;;;;162.43;155.77;;;;;23.20;95566.00;;;;5082779;28;20201;-73
2023/10/25 13:08:23;;;;;;;173.73;166.03;;;;;23.00;95555.00;;;;5080405;28;20777;-72
2023/10/25 13:11:12;;;;;;;134.70;127.47;;;;;22.00;95549.00;;;;5090911;28;20819;-74
2023/10/25 13:14:02;;;;;;;125.53;119.43;;;;;24.00;95508.00;;;;5098357;28;20303;-73
2023/10/25 13:16:51;;;;;;;152.57;145.97;;;;;25.30;95510.00;;;;5091586;28;20222;-73
2023/10/25 13:19:43;;;;;;;142.10;135.90;;;;;22.40;95485.00;;;;5091595;28;20748;-73
2023/10/25 13:22:32;;;;;;;149.07;142.73;;;;;22.70;95535.00;;;;5096123;28;20584;-71
2023/10/25 13:25:21;;;;;;;114.27;107.30;;;;;21.00;95529.00;;;;5088540;28;20207;-71
2023/10/25 13:28:11;;;;;;;90.77;85.30;;;;;21.50;95532.00;;;;5089769;28;20222;-74
2023/10/25 13:31:02;;;;;;;72.10;67.93;;;;;21.90;95517.00;;;;5095176;28;20214;-72
2023/10/25 13:33:51;;;;;;;54.67;51.70;;;;;22.30;95528.00;;;;5094855;28;20584;-73
2023/10/25 13:36:43;;;;;;;56.03;52.07;;;;;22.10;95528.00;;;;5091789;28;20217;-74
2023/10/25 13:39:33;;;;;;;47.67;45.03;;;;;21.80;95529.00;;;;5088589;28;20732;-73
2023/10/25 13:42:22;;;;;;;40.63;37.20;;;;;21.80;95526.00;;;;5092688;28;20211;-72
2023/10/25 13:45:11;;;;;;;45.73;41.40;;;;;22.10;95522.00;;;;5093356;28;20207;-72
2023/10/25 13:48:00;;;;;;;38.03;35.40;;;;;22.10;95524.00;;;;5091075;28;20233;-73
2023/10/25 13:50:50;;;;;;;33.70;31.13;;;;;21.50;95517.00;;;;5094699;28;20591;-72
2023/10/25 13:53:40;;;;;;;29.47;26.67;;;;;21.00;95522.00;;;;5093551;28;20225;-72
2023/10/25 13:56:29;;;;;;;29.03;26.13;;;;;20.40;95516.00;;;;5090232;28;20566;-74
2023/10/25 13:59:18;;;;;;;28.67;24.40;;;;;20.80;95518.00;;;;5096453;28;20237;-72
2023/10/25 14:02:08;;;;;;;27.73;20.27;;;;;20.90;95519.00;;;;5092849;28;20210;-73